sensor_id;sensor_type;location;lat;lon;timestamp;temperature;humidity
39931;DHT22;26635;-35.248;149.138;2022-09-17T00:02:24;12.00;80.30
39931;DHT22;26635;-35.248;149.138;2022-09-17T00:04:55;12.30;80.80
39931;DHT22;26635;-35.248;149.138;2022-09-17T00:07:26;12.50;77.70
39931;DHT22;26635;-35.248;149.138;2022-09-17T00:09:57;12.70;78.60
39931;DHT22;26635;-35.248;149.138;2022-09-17T00:12:28;12.90;76.50
39931;DHT22;26635;-35.248;149.138;2022-09-17T00:15:00;13.10;76.70
39931;DHT22;26635;-35.248;149.138;2022-09-17T00:17:30;13.20;76.50
39931;DHT22;26635;-35.248;149.138;2022-09-17T00:20:01;13.30;74.30
39931;DHT22;26635;-35.248;149.138;2022-09-17T00:22:31;13.50;74.20
39931;DHT22;26635;-35.248;149.138;2022-09-17T00:25:02;13.70;74.50
39931;DHT22;26635;-35.248;149.138;2022-09-17T00:27:32;13.90;72.30
39931;DHT22;26635;-35.248;149.138;2022-09-17T00:30:04;14.00;71.70
39931;DHT22;26635;-35.248;149.138;2022-09-17T00:32:35;14.00;72.50
39931;DHT22;26635;-35.248;149.138;2022-09-17T00:35:05;14.10;72.60
39931;DHT22;26635;-35.248;149.138;2022-09-17T00:37:35;14.20;72.50
39931;DHT22;26635;-35.248;149.138;2022-09-17T00:40:06;14.10;73.30
39931;DHT22;26635;-35.248;149.138;2022-09-17T00:42:37;13.80;72.00
39931;DHT22;26635;-35.248;149.138;2022-09-17T00:45:09;13.50;71.60
39931;DHT22;26635;-35.248;149.138;2022-09-17T00:48:02;13.40;73.10
39931;DHT22;26635;-35.248;149.138;2022-09-17T00:50:41;13.40;73.40
39931;DHT22;26635;-35.248;149.138;2022-09-17T00:53:17;13.40;74.40
39931;DHT22;26635;-35.248;149.138;2022-09-17T00:56:03;13.50;72.80
39931;DHT22;26635;-35.248;149.138;2022-09-17T00:58:38;13.60;72.70
39931;DHT22;26635;-35.248;149.138;2022-09-17T01:01:08;13.80;72.10
39931;DHT22;26635;-35.248;149.138;2022-09-17T01:03:38;14.10;72.70
39931;DHT22;26635;-35.248;149.138;2022-09-17T01:06:14;14.40;72.40
39931;DHT22;26635;-35.248;149.138;2022-09-17T01:11:57;14.80;70.50
39931;DHT22;26635;-35.248;149.138;2022-09-17T01:14:52;14.90;70.40
39931;DHT22;26635;-35.248;149.138;2022-09-17T01:18:09;15.00;69.90
39931;DHT22;26635;-35.248;149.138;2022-09-17T01:32:36;15.50;67.20
39931;DHT22;26635;-35.248;149.138;2022-09-17T01:35:44;15.40;68.00
39931;DHT22;26635;-35.248;149.138;2022-09-17T01:38:39;15.10;67.00
39931;DHT22;26635;-35.248;149.138;2022-09-17T01:44:15;14.50;66.50
39931;DHT22;26635;-35.248;149.138;2022-09-17T01:46:50;14.30;68.70
39931;DHT22;26635;-35.248;149.138;2022-09-17T01:49:23;14.30;69.80
39931;DHT22;26635;-35.248;149.138;2022-09-17T01:51:54;14.30;70.30
39931;DHT22;26635;-35.248;149.138;2022-09-17T01:54:31;14.40;69.80
39931;DHT22;26635;-35.248;149.138;2022-09-17T01:57:25;14.50;70.80
39931;DHT22;26635;-35.248;149.138;2022-09-17T02:00:08;14.50;70.30
39931;DHT22;26635;-35.248;149.138;2022-09-17T02:03:08;14.60;68.50
39931;DHT22;26635;-35.248;149.138;2022-09-17T02:05:49;14.60;68.90
39931;DHT22;26635;-35.248;149.138;2022-09-17T02:08:38;14.70;70.10
39931;DHT22;26635;-35.248;149.138;2022-09-17T02:11:12;14.90;69.80
39931;DHT22;26635;-35.248;149.138;2022-09-17T02:13:47;15.20;70.70
39931;DHT22;26635;-35.248;149.138;2022-09-17T02:19:09;15.40;68.20
39931;DHT22;26635;-35.248;149.138;2022-09-17T02:22:05;15.20;67.10
39931;DHT22;26635;-35.248;149.138;2022-09-17T02:27:25;14.60;70.50
39931;DHT22;26635;-35.248;149.138;2022-09-17T02:29:56;14.40;71.60
39931;DHT22;26635;-35.248;149.138;2022-09-17T02:32:27;14.20;72.10
39931;DHT22;26635;-35.248;149.138;2022-09-17T02:34:58;14.00;71.30
39931;DHT22;26635;-35.248;149.138;2022-09-17T02:37:28;13.90;72.20
39931;DHT22;26635;-35.248;149.138;2022-09-17T02:39:58;13.90;73.40
39931;DHT22;26635;-35.248;149.138;2022-09-17T02:45:28;13.80;74.30
39931;DHT22;26635;-35.248;149.138;2022-09-17T02:59:09;13.20;79.90
39931;DHT22;26635;-35.248;149.138;2022-09-17T03:01:46;13.10;79.50
39931;DHT22;26635;-35.248;149.138;2022-09-17T03:04:21;13.20;80.10
39931;DHT22;26635;-35.248;149.138;2022-09-17T03:06:55;13.40;81.70
39931;DHT22;26635;-35.248;149.138;2022-09-17T03:09:26;13.50;79.50
39931;DHT22;26635;-35.248;149.138;2022-09-17T03:11:57;13.70;79.70
39931;DHT22;26635;-35.248;149.138;2022-09-17T03:14:28;13.60;79.00
39931;DHT22;26635;-35.248;149.138;2022-09-17T03:16:58;13.50;78.70
39931;DHT22;26635;-35.248;149.138;2022-09-17T03:19:28;13.40;79.20
39931;DHT22;26635;-35.248;149.138;2022-09-17T03:21:58;13.40;80.50
39931;DHT22;26635;-35.248;149.138;2022-09-17T03:24:29;13.40;80.80
39931;DHT22;26635;-35.248;149.138;2022-09-17T03:26:59;13.40;79.80
39931;DHT22;26635;-35.248;149.138;2022-09-17T03:29:29;13.30;79.70
39931;DHT22;26635;-35.248;149.138;2022-09-17T03:32:00;13.30;80.20
39931;DHT22;26635;-35.248;149.138;2022-09-17T03:34:30;13.30;76.10
39931;DHT22;26635;-35.248;149.138;2022-09-17T03:37:01;13.30;76.60
39931;DHT22;26635;-35.248;149.138;2022-09-17T03:39:31;13.30;75.10
39931;DHT22;26635;-35.248;149.138;2022-09-17T03:42:02;13.50;79.40
39931;DHT22;26635;-35.248;149.138;2022-09-17T03:44:32;13.60;78.80
39931;DHT22;26635;-35.248;149.138;2022-09-17T03:47:03;13.70;78.70
39931;DHT22;26635;-35.248;149.138;2022-09-17T03:49:34;13.80;78.30
39931;DHT22;26635;-35.248;149.138;2022-09-17T03:52:04;13.70;77.90
39931;DHT22;26635;-35.248;149.138;2022-09-17T03:54:34;13.80;77.60
39931;DHT22;26635;-35.248;149.138;2022-09-17T03:57:04;13.80;79.30
39931;DHT22;26635;-35.248;149.138;2022-09-17T03:59:35;13.80;78.70
39931;DHT22;26635;-35.248;149.138;2022-09-17T04:02:05;13.80;78.70
39931;DHT22;26635;-35.248;149.138;2022-09-17T04:04:38;13.70;78.40
39931;DHT22;26635;-35.248;149.138;2022-09-17T04:07:08;13.70;82.20
39931;DHT22;26635;-35.248;149.138;2022-09-17T04:09:40;13.80;82.70
39931;DHT22;26635;-35.248;149.138;2022-09-17T04:12:10;13.90;80.30
39931;DHT22;26635;-35.248;149.138;2022-09-17T04:14:41;14.00;79.70
39931;DHT22;26635;-35.248;149.138;2022-09-17T04:17:12;14.00;75.10
39931;DHT22;26635;-35.248;149.138;2022-09-17T04:19:46;13.90;72.70
39931;DHT22;26635;-35.248;149.138;2022-09-17T04:22:17;13.80;73.30
39931;DHT22;26635;-35.248;149.138;2022-09-17T04:24:49;13.80;73.90
39931;DHT22;26635;-35.248;149.138;2022-09-17T04:27:19;13.80;74.20
39931;DHT22;26635;-35.248;149.138;2022-09-17T04:29:49;13.90;71.10
39931;DHT22;26635;-35.248;149.138;2022-09-17T04:32:20;14.00;70.50
39931;DHT22;26635;-35.248;149.138;2022-09-17T04:35:06;14.10;70.10
39931;DHT22;26635;-35.248;149.138;2022-09-17T04:37:37;14.10;68.80
39931;DHT22;26635;-35.248;149.138;2022-09-17T04:40:08;14.10;69.60
39931;DHT22;26635;-35.248;149.138;2022-09-17T04:42:39;14.10;68.90
39931;DHT22;26635;-35.248;149.138;2022-09-17T04:45:09;14.20;67.50
39931;DHT22;26635;-35.248;149.138;2022-09-17T04:47:41;14.20;69.50
39931;DHT22;26635;-35.248;149.138;2022-09-17T04:50:11;14.20;68.00
39931;DHT22;26635;-35.248;149.138;2022-09-17T04:52:42;14.20;65.60
39931;DHT22;26635;-35.248;149.138;2022-09-17T04:55:14;14.10;65.70
39931;DHT22;26635;-35.248;149.138;2022-09-17T04:57:50;14.10;64.40
39931;DHT22;26635;-35.248;149.138;2022-09-17T05:00:21;14.00;65.50
39931;DHT22;26635;-35.248;149.138;2022-09-17T05:02:54;13.90;66.40
39931;DHT22;26635;-35.248;149.138;2022-09-17T05:05:24;13.90;66.60
39931;DHT22;26635;-35.248;149.138;2022-09-17T05:07:55;13.90;67.30
39931;DHT22;26635;-35.248;149.138;2022-09-17T05:10:25;13.90;66.40
39931;DHT22;26635;-35.248;149.138;2022-09-17T05:12:56;13.80;66.30
39931;DHT22;26635;-35.248;149.138;2022-09-17T05:15:27;13.70;67.10
39931;DHT22;26635;-35.248;149.138;2022-09-17T05:18:00;13.80;67.20
39931;DHT22;26635;-35.248;149.138;2022-09-17T05:20:30;13.80;66.40
39931;DHT22;26635;-35.248;149.138;2022-09-17T05:23:01;13.90;66.50
39931;DHT22;26635;-35.248;149.138;2022-09-17T05:25:31;13.90;66.40
39931;DHT22;26635;-35.248;149.138;2022-09-17T05:28:04;13.90;66.70
39931;DHT22;26635;-35.248;149.138;2022-09-17T05:30:36;13.80;66.60
39931;DHT22;26635;-35.248;149.138;2022-09-17T05:33:06;13.80;68.10
39931;DHT22;26635;-35.248;149.138;2022-09-17T05:35:37;13.80;67.50
39931;DHT22;26635;-35.248;149.138;2022-09-17T05:38:09;13.70;67.10
39931;DHT22;26635;-35.248;149.138;2022-09-17T05:40:42;13.70;68.10
39931;DHT22;26635;-35.248;149.138;2022-09-17T05:43:12;13.70;68.50
39931;DHT22;26635;-35.248;149.138;2022-09-17T05:45:42;13.60;68.10
39931;DHT22;26635;-35.248;149.138;2022-09-17T05:48:14;13.60;69.30
39931;DHT22;26635;-35.248;149.138;2022-09-17T05:50:45;13.50;70.40
39931;DHT22;26635;-35.248;149.138;2022-09-17T05:53:15;13.40;72.20
39931;DHT22;26635;-35.248;149.138;2022-09-17T05:55:48;13.20;72.90
39931;DHT22;26635;-35.248;149.138;2022-09-17T05:58:20;13.20;73.20
39931;DHT22;26635;-35.248;149.138;2022-09-17T06:00:51;13.20;73.10
39931;DHT22;26635;-35.248;149.138;2022-09-17T06:03:21;13.20;73.30
39931;DHT22;26635;-35.248;149.138;2022-09-17T06:05:54;13.20;74.00
39931;DHT22;26635;-35.248;149.138;2022-09-17T06:08:29;13.10;73.50
39931;DHT22;26635;-35.248;149.138;2022-09-17T06:11:04;13.10;74.20
39931;DHT22;26635;-35.248;149.138;2022-09-17T06:13:35;13.00;72.90
39931;DHT22;26635;-35.248;149.138;2022-09-17T06:16:06;12.80;74.10
39931;DHT22;26635;-35.248;149.138;2022-09-17T06:18:37;12.70;74.40
39931;DHT22;26635;-35.248;149.138;2022-09-17T06:21:07;12.60;73.80
39931;DHT22;26635;-35.248;149.138;2022-09-17T06:23:38;12.60;74.40
39931;DHT22;26635;-35.248;149.138;2022-09-17T06:26:08;12.50;75.20
39931;DHT22;26635;-35.248;149.138;2022-09-17T06:28:39;12.50;75.20
39931;DHT22;26635;-35.248;149.138;2022-09-17T06:31:11;12.60;76.60
39931;DHT22;26635;-35.248;149.138;2022-09-17T06:33:42;12.60;75.20
39931;DHT22;26635;-35.248;149.138;2022-09-17T06:36:12;12.60;75.20
39931;DHT22;26635;-35.248;149.138;2022-09-17T06:38:43;12.60;75.70
39931;DHT22;26635;-35.248;149.138;2022-09-17T06:41:13;12.50;75.60
39931;DHT22;26635;-35.248;149.138;2022-09-17T06:43:45;12.40;75.60
39931;DHT22;26635;-35.248;149.138;2022-09-17T06:46:15;12.40;76.70
39931;DHT22;26635;-35.248;149.138;2022-09-17T06:48:46;12.40;76.00
39931;DHT22;26635;-35.248;149.138;2022-09-17T06:51:16;12.40;76.10
39931;DHT22;26635;-35.248;149.138;2022-09-17T06:53:47;12.30;75.60
39931;DHT22;26635;-35.248;149.138;2022-09-17T06:56:17;12.10;76.20
39931;DHT22;26635;-35.248;149.138;2022-09-17T06:58:48;12.10;76.90
39931;DHT22;26635;-35.248;149.138;2022-09-17T07:01:19;12.20;77.80
39931;DHT22;26635;-35.248;149.138;2022-09-17T07:03:49;12.10;77.50
39931;DHT22;26635;-35.248;149.138;2022-09-17T07:06:19;12.10;77.80
39931;DHT22;26635;-35.248;149.138;2022-09-17T07:08:50;12.00;79.40
39931;DHT22;26635;-35.248;149.138;2022-09-17T07:11:21;12.00;81.20
39931;DHT22;26635;-35.248;149.138;2022-09-17T07:13:51;11.90;82.40
39931;DHT22;26635;-35.248;149.138;2022-09-17T07:16:21;11.90;83.50
39931;DHT22;26635;-35.248;149.138;2022-09-17T07:18:52;11.80;84.30
39931;DHT22;26635;-35.248;149.138;2022-09-17T07:21:23;11.70;85.10
39931;DHT22;26635;-35.248;149.138;2022-09-17T07:23:53;11.70;84.50
39931;DHT22;26635;-35.248;149.138;2022-09-17T07:26:23;11.70;84.70
39931;DHT22;26635;-35.248;149.138;2022-09-17T07:28:54;11.60;83.30
39931;DHT22;26635;-35.248;149.138;2022-09-17T07:31:26;11.60;84.20
39931;DHT22;26635;-35.248;149.138;2022-09-17T07:33:57;11.60;84.20
39931;DHT22;26635;-35.248;149.138;2022-09-17T07:36:27;11.50;84.40
39931;DHT22;26635;-35.248;149.138;2022-09-17T07:38:58;11.50;84.30
39931;DHT22;26635;-35.248;149.138;2022-09-17T07:41:29;11.50;84.10
39931;DHT22;26635;-35.248;149.138;2022-09-17T07:44:01;11.50;84.60
39931;DHT22;26635;-35.248;149.138;2022-09-17T07:46:32;11.50;84.30
39931;DHT22;26635;-35.248;149.138;2022-09-17T07:49:02;11.40;83.80
39931;DHT22;26635;-35.248;149.138;2022-09-17T07:51:33;11.40;83.20
39931;DHT22;26635;-35.248;149.138;2022-09-17T07:54:03;11.40;83.60
39931;DHT22;26635;-35.248;149.138;2022-09-17T07:56:34;11.30;83.10
39931;DHT22;26635;-35.248;149.138;2022-09-17T07:59:05;11.30;83.50
39931;DHT22;26635;-35.248;149.138;2022-09-17T08:01:35;11.30;83.60
39931;DHT22;26635;-35.248;149.138;2022-09-17T08:04:06;11.20;83.40
39931;DHT22;26635;-35.248;149.138;2022-09-17T08:06:37;11.20;84.40
39931;DHT22;26635;-35.248;149.138;2022-09-17T08:09:10;11.20;84.20
39931;DHT22;26635;-35.248;149.138;2022-09-17T08:11:41;11.10;83.90
39931;DHT22;26635;-35.248;149.138;2022-09-17T08:14:28;11.00;85.10
39931;DHT22;26635;-35.248;149.138;2022-09-17T08:16:58;11.00;85.20
39931;DHT22;26635;-35.248;149.138;2022-09-17T08:19:32;11.00;86.00
39931;DHT22;26635;-35.248;149.138;2022-09-17T08:22:04;10.90;86.90
39931;DHT22;26635;-35.248;149.138;2022-09-17T08:24:34;10.80;86.80
39931;DHT22;26635;-35.248;149.138;2022-09-17T08:27:04;10.80;87.10
39931;DHT22;26635;-35.248;149.138;2022-09-17T08:29:35;10.70;87.50
39931;DHT22;26635;-35.248;149.138;2022-09-17T08:32:05;10.60;87.90
39931;DHT22;26635;-35.248;149.138;2022-09-17T08:34:36;10.60;88.50
39931;DHT22;26635;-35.248;149.138;2022-09-17T08:37:07;10.60;88.40
39931;DHT22;26635;-35.248;149.138;2022-09-17T08:39:37;10.60;88.50
39931;DHT22;26635;-35.248;149.138;2022-09-17T08:44:44;10.60;88.90
39931;DHT22;26635;-35.248;149.138;2022-09-17T08:47:29;10.60;89.00
39931;DHT22;26635;-35.248;149.138;2022-09-17T08:50:07;10.60;89.50
39931;DHT22;26635;-35.248;149.138;2022-09-17T08:52:54;10.60;89.40
39931;DHT22;26635;-35.248;149.138;2022-09-17T09:01:13;10.60;89.70
39931;DHT22;26635;-35.248;149.138;2022-09-17T09:06:43;10.60;89.20
39931;DHT22;26635;-35.248;149.138;2022-09-17T09:09:17;10.60;89.70
39931;DHT22;26635;-35.248;149.138;2022-09-17T09:11:54;10.60;90.00
39931;DHT22;26635;-35.248;149.138;2022-09-17T09:14:39;10.50;90.30
39931;DHT22;26635;-35.248;149.138;2022-09-17T09:17:11;10.60;90.20
39931;DHT22;26635;-35.248;149.138;2022-09-17T09:19:45;10.60;90.10
39931;DHT22;26635;-35.248;149.138;2022-09-17T09:22:48;10.60;90.10
39931;DHT22;26635;-35.248;149.138;2022-09-17T09:25:28;10.60;90.40
39931;DHT22;26635;-35.248;149.138;2022-09-17T09:28:34;10.50;91.00
39931;DHT22;26635;-35.248;149.138;2022-09-17T09:31:18;10.50;90.70
39931;DHT22;26635;-35.248;149.138;2022-09-17T09:33:52;10.50;90.70
39931;DHT22;26635;-35.248;149.138;2022-09-17T09:36:27;10.60;90.50
39931;DHT22;26635;-35.248;149.138;2022-09-17T09:39:14;10.50;90.20
39931;DHT22;26635;-35.248;149.138;2022-09-17T09:42:51;10.50;90.80
39931;DHT22;26635;-35.248;149.138;2022-09-17T09:45:05;10.50;91.20
39931;DHT22;26635;-35.248;149.138;2022-09-17T09:47:55;10.50;91.20
39931;DHT22;26635;-35.248;149.138;2022-09-17T09:50:58;10.40;91.80
39931;DHT22;26635;-35.248;149.138;2022-09-17T09:59:00;10.30;92.70
39931;DHT22;26635;-35.248;149.138;2022-09-17T10:01:31;10.30;92.40
39931;DHT22;26635;-35.248;149.138;2022-09-17T10:04:32;10.30;92.70
39931;DHT22;26635;-35.248;149.138;2022-09-17T10:07:10;10.20;93.00
39931;DHT22;26635;-35.248;149.138;2022-09-17T10:09:45;10.20;92.70
39931;DHT22;26635;-35.248;149.138;2022-09-17T10:12:17;10.20;92.60
39931;DHT22;26635;-35.248;149.138;2022-09-17T10:14:47;10.20;92.30
39931;DHT22;26635;-35.248;149.138;2022-09-17T10:17:25;10.10;92.30
39931;DHT22;26635;-35.248;149.138;2022-09-17T10:22:38;10.10;92.20
39931;DHT22;26635;-35.248;149.138;2022-09-17T10:28:04;10.00;92.20
39931;DHT22;26635;-35.248;149.138;2022-09-17T10:30:34;10.00;92.30
39931;DHT22;26635;-35.248;149.138;2022-09-17T10:33:18;10.00;92.90
39931;DHT22;26635;-35.248;149.138;2022-09-17T10:36:12;10.00;92.60
39931;DHT22;26635;-35.248;149.138;2022-09-17T10:38:46;10.00;92.90
39931;DHT22;26635;-35.248;149.138;2022-09-17T10:41:18;10.00;93.10
39931;DHT22;26635;-35.248;149.138;2022-09-17T10:43:56;10.00;93.60
39931;DHT22;26635;-35.248;149.138;2022-09-17T10:46:36;10.00;93.90
39931;DHT22;26635;-35.248;149.138;2022-09-17T10:49:35;10.00;94.00
39931;DHT22;26635;-35.248;149.138;2022-09-17T10:52:19;10.00;94.10
39931;DHT22;26635;-35.248;149.138;2022-09-17T11:06:44;9.80;94.80
39931;DHT22;26635;-35.248;149.138;2022-09-17T11:26:07;9.40;95.80
39931;DHT22;26635;-35.248;149.138;2022-09-17T11:42:58;9.20;96.30
39931;DHT22;26635;-35.248;149.138;2022-09-17T11:45:38;9.20;96.30
39931;DHT22;26635;-35.248;149.138;2022-09-17T11:48:14;9.20;96.30
39931;DHT22;26635;-35.248;149.138;2022-09-17T11:53:29;9.20;96.70
39931;DHT22;26635;-35.248;149.138;2022-09-17T12:01:57;9.20;97.00
39931;DHT22;26635;-35.248;149.138;2022-09-17T12:13:33;9.10;96.60
39931;DHT22;26635;-35.248;149.138;2022-09-17T12:21:58;9.10;96.70
39931;DHT22;26635;-35.248;149.138;2022-09-17T12:24:33;9.10;96.70
39931;DHT22;26635;-35.248;149.138;2022-09-17T12:27:35;9.10;96.90
39931;DHT22;26635;-35.248;149.138;2022-09-17T12:30:11;9.10;96.90
39931;DHT22;26635;-35.248;149.138;2022-09-17T12:42:09;9.00;96.20
39931;DHT22;26635;-35.248;149.138;2022-09-17T12:58:49;8.70;96.20
39931;DHT22;26635;-35.248;149.138;2022-09-17T13:10:39;8.40;95.80
39931;DHT22;26635;-35.248;149.138;2022-09-17T13:13:31;8.40;96.10
39931;DHT22;26635;-35.248;149.138;2022-09-17T13:22:18;8.30;96.50
39931;DHT22;26635;-35.248;149.138;2022-09-17T13:25:03;8.30;96.70
39931;DHT22;26635;-35.248;149.138;2022-09-17T13:27:36;8.30;96.90
39931;DHT22;26635;-35.248;149.138;2022-09-17T13:30:11;8.40;97.10
39931;DHT22;26635;-35.248;149.138;2022-09-17T13:32:48;8.40;97.20
39931;DHT22;26635;-35.248;149.138;2022-09-17T13:37:55;8.50;97.00
39931;DHT22;26635;-35.248;149.138;2022-09-17T13:40:35;8.60;96.90
39931;DHT22;26635;-35.248;149.138;2022-09-17T13:43:10;8.70;96.80
39931;DHT22;26635;-35.248;149.138;2022-09-17T13:48:34;8.70;96.60
39931;DHT22;26635;-35.248;149.138;2022-09-17T13:54:08;8.80;96.70
39931;DHT22;26635;-35.248;149.138;2022-09-17T13:59:18;8.90;96.30
39931;DHT22;26635;-35.248;149.138;2022-09-17T14:09:59;8.90;96.40
39931;DHT22;26635;-35.248;149.138;2022-09-17T14:15:52;8.80;96.30
39931;DHT22;26635;-35.248;149.138;2022-09-17T14:21:21;8.70;96.40
39931;DHT22;26635;-35.248;149.138;2022-09-17T14:24:02;8.70;96.30
39931;DHT22;26635;-35.248;149.138;2022-09-17T14:29:49;8.70;96.50
39931;DHT22;26635;-35.248;149.138;2022-09-17T14:32:41;8.70;96.40
39931;DHT22;26635;-35.248;149.138;2022-09-17T14:37:59;8.80;96.50
39931;DHT22;26635;-35.248;149.138;2022-09-17T14:40:32;8.80;95.70
39931;DHT22;26635;-35.248;149.138;2022-09-17T14:43:03;8.80;95.90
39931;DHT22;26635;-35.248;149.138;2022-09-17T14:45:40;8.90;95.80
39931;DHT22;26635;-35.248;149.138;2022-09-17T14:48:32;8.90;95.70
39931;DHT22;26635;-35.248;149.138;2022-09-17T14:54:07;8.90;95.40
39931;DHT22;26635;-35.248;149.138;2022-09-17T14:59:56;9.00;95.20
39931;DHT22;26635;-35.248;149.138;2022-09-17T15:02:39;9.00;95.30
39931;DHT22;26635;-35.248;149.138;2022-09-17T15:08:16;9.00;94.90
39931;DHT22;26635;-35.248;149.138;2022-09-17T15:13:36;9.00;95.10
39931;DHT22;26635;-35.248;149.138;2022-09-17T15:16:21;9.00;95.30
39931;DHT22;26635;-35.248;149.138;2022-09-17T15:18:55;9.00;95.20
39931;DHT22;26635;-35.248;149.138;2022-09-17T15:27:14;9.00;94.90
39931;DHT22;26635;-35.248;149.138;2022-09-17T15:33:03;9.00;94.60
39931;DHT22;26635;-35.248;149.138;2022-09-17T15:35:38;9.00;94.70
39931;DHT22;26635;-35.248;149.138;2022-09-17T15:38:29;9.00;94.80
39931;DHT22;26635;-35.248;149.138;2022-09-17T15:43:49;9.00;94.50
39931;DHT22;26635;-35.248;149.138;2022-09-17T15:46:40;9.00;94.80
39931;DHT22;26635;-35.248;149.138;2022-09-17T15:52:29;9.10;94.70
39931;DHT22;26635;-35.248;149.138;2022-09-17T15:55:02;9.10;94.30
39931;DHT22;26635;-35.248;149.138;2022-09-17T15:57:35;9.10;94.00
39931;DHT22;26635;-35.248;149.138;2022-09-17T16:00:13;9.10;94.30
39931;DHT22;26635;-35.248;149.138;2022-09-17T16:02:43;9.10;94.40
39931;DHT22;26635;-35.248;149.138;2022-09-17T16:07:47;9.00;94.60
39931;DHT22;26635;-35.248;149.138;2022-09-17T16:10:19;9.00;94.30
39931;DHT22;26635;-35.248;149.138;2022-09-17T16:12:49;9.00;94.40
39931;DHT22;26635;-35.248;149.138;2022-09-17T16:15:20;9.00;94.40
39931;DHT22;26635;-35.248;149.138;2022-09-17T16:17:50;8.90;94.00
39931;DHT22;26635;-35.248;149.138;2022-09-17T16:20:23;8.90;93.50
39931;DHT22;26635;-35.248;149.138;2022-09-17T16:22:55;8.90;93.50
39931;DHT22;26635;-35.248;149.138;2022-09-17T16:25:27;8.90;93.30
39931;DHT22;26635;-35.248;149.138;2022-09-17T16:28:08;8.90;92.90
39931;DHT22;26635;-35.248;149.138;2022-09-17T16:30:42;8.90;92.90
39931;DHT22;26635;-35.248;149.138;2022-09-17T16:33:15;8.80;92.40
39931;DHT22;26635;-35.248;149.138;2022-09-17T16:35:46;8.90;92.50
39931;DHT22;26635;-35.248;149.138;2022-09-17T16:38:22;8.90;92.60
39931;DHT22;26635;-35.248;149.138;2022-09-17T16:40:55;8.90;92.70
39931;DHT22;26635;-35.248;149.138;2022-09-17T16:43:29;8.90;92.70
39931;DHT22;26635;-35.248;149.138;2022-09-17T16:46:04;8.90;92.90
39931;DHT22;26635;-35.248;149.138;2022-09-17T16:48:35;9.00;92.70
39931;DHT22;26635;-35.248;149.138;2022-09-17T16:51:07;9.00;93.20
39931;DHT22;26635;-35.248;149.138;2022-09-17T16:53:38;9.00;93.10
39931;DHT22;26635;-35.248;149.138;2022-09-17T16:56:10;9.00;93.10
39931;DHT22;26635;-35.248;149.138;2022-09-17T16:58:42;9.00;93.20
39931;DHT22;26635;-35.248;149.138;2022-09-17T17:01:15;9.00;92.70
39931;DHT22;26635;-35.248;149.138;2022-09-17T17:03:49;9.00;92.90
39931;DHT22;26635;-35.248;149.138;2022-09-17T17:06:20;9.00;92.80
39931;DHT22;26635;-35.248;149.138;2022-09-17T17:08:51;9.00;92.50
39931;DHT22;26635;-35.248;149.138;2022-09-17T17:11:22;9.10;92.70
39931;DHT22;26635;-35.248;149.138;2022-09-17T17:13:53;9.00;93.00
39931;DHT22;26635;-35.248;149.138;2022-09-17T17:16:27;9.00;92.80
39931;DHT22;26635;-35.248;149.138;2022-09-17T17:18:57;9.10;92.70
39931;DHT22;26635;-35.248;149.138;2022-09-17T17:21:29;9.00;92.70
39931;DHT22;26635;-35.248;149.138;2022-09-17T17:23:59;9.00;91.80
39931;DHT22;26635;-35.248;149.138;2022-09-17T17:26:30;9.00;92.30
39931;DHT22;26635;-35.248;149.138;2022-09-17T17:29:00;9.00;92.60
39931;DHT22;26635;-35.248;149.138;2022-09-17T17:31:31;9.00;92.80
39931;DHT22;26635;-35.248;149.138;2022-09-17T17:34:01;9.00;92.70
39931;DHT22;26635;-35.248;149.138;2022-09-17T17:36:32;8.90;93.00
39931;DHT22;26635;-35.248;149.138;2022-09-17T17:39:03;8.80;93.10
39931;DHT22;26635;-35.248;149.138;2022-09-17T17:41:35;8.80;93.00
39931;DHT22;26635;-35.248;149.138;2022-09-17T17:44:06;8.70;93.00
39931;DHT22;26635;-35.248;149.138;2022-09-17T17:46:40;8.70;93.10
39931;DHT22;26635;-35.248;149.138;2022-09-17T17:49:11;8.60;93.20
39931;DHT22;26635;-35.248;149.138;2022-09-17T17:51:42;8.70;93.20
39931;DHT22;26635;-35.248;149.138;2022-09-17T17:54:13;8.70;93.00
39931;DHT22;26635;-35.248;149.138;2022-09-17T17:56:45;8.80;93.00
39931;DHT22;26635;-35.248;149.138;2022-09-17T17:59:15;8.70;93.60
39931;DHT22;26635;-35.248;149.138;2022-09-17T18:01:45;8.80;92.60
39931;DHT22;26635;-35.248;149.138;2022-09-17T18:04:16;8.80;93.30
39931;DHT22;26635;-35.248;149.138;2022-09-17T18:06:48;8.80;92.40
39931;DHT22;26635;-35.248;149.138;2022-09-17T18:09:18;8.90;92.70
39931;DHT22;26635;-35.248;149.138;2022-09-17T18:11:49;8.90;92.60
39931;DHT22;26635;-35.248;149.138;2022-09-17T18:14:19;8.90;92.70
39931;DHT22;26635;-35.248;149.138;2022-09-17T18:16:49;8.90;93.00
39931;DHT22;26635;-35.248;149.138;2022-09-17T18:19:20;8.90;92.70
39931;DHT22;26635;-35.248;149.138;2022-09-17T18:21:53;8.90;92.70
39931;DHT22;26635;-35.248;149.138;2022-09-17T18:24:23;8.90;92.70
39931;DHT22;26635;-35.248;149.138;2022-09-17T18:26:53;8.90;92.70
39931;DHT22;26635;-35.248;149.138;2022-09-17T18:29:24;8.80;92.30
39931;DHT22;26635;-35.248;149.138;2022-09-17T18:31:54;8.80;92.20
39931;DHT22;26635;-35.248;149.138;2022-09-17T18:34:24;8.80;92.10
39931;DHT22;26635;-35.248;149.138;2022-09-17T18:36:55;8.70;92.50
39931;DHT22;26635;-35.248;149.138;2022-09-17T18:39:25;8.80;92.00
39931;DHT22;26635;-35.248;149.138;2022-09-17T18:42:15;8.70;92.10
39931;DHT22;26635;-35.248;149.138;2022-09-17T18:44:47;8.80;92.20
39931;DHT22;26635;-35.248;149.138;2022-09-17T18:47:19;8.80;92.20
39931;DHT22;26635;-35.248;149.138;2022-09-17T18:49:50;8.80;92.10
39931;DHT22;26635;-35.248;149.138;2022-09-17T18:52:20;8.70;91.80
39931;DHT22;26635;-35.248;149.138;2022-09-17T18:54:50;8.70;92.30
39931;DHT22;26635;-35.248;149.138;2022-09-17T18:57:23;8.70;92.40
39931;DHT22;26635;-35.248;149.138;2022-09-17T18:59:53;8.70;91.70
39931;DHT22;26635;-35.248;149.138;2022-09-17T19:02:26;8.70;92.10
39931;DHT22;26635;-35.248;149.138;2022-09-17T19:04:57;8.70;92.00
39931;DHT22;26635;-35.248;149.138;2022-09-17T19:07:27;8.70;91.80
39931;DHT22;26635;-35.248;149.138;2022-09-17T19:09:57;8.60;92.00
39931;DHT22;26635;-35.248;149.138;2022-09-17T19:12:30;8.60;92.00
39931;DHT22;26635;-35.248;149.138;2022-09-17T19:15:02;8.60;92.10
39931;DHT22;26635;-35.248;149.138;2022-09-17T19:17:34;8.60;92.30
39931;DHT22;26635;-35.248;149.138;2022-09-17T19:20:05;8.60;92.60
39931;DHT22;26635;-35.248;149.138;2022-09-17T19:22:36;8.60;92.20